RÉSULTATS    Trail Cloysien des 3 rivières - Édition du 01/03/2020


Vous pouvez changer la distance ici.

Vous pouvez changer la distance ici.

Classement PDF Général Classement PDF Alphabétique /results/<span class='glyphicon glyphicon-picture'></span> Classement Temps Réel - Temps Puce

313 participants - 111 Femmes - 202 Hommes
41 licenciés (13%) - 272 non-licenciés (87%)

Temps moyen : 01:07:33




Pos. Temps Nom - Prénom Club Dossard Catégorie km/h Temps Reel
312 01:58:24 BUFFA Christelle DYNAMIC SPORTING CLUB 171 M0F (27 / 27) 5.0 01:58:10
313 01:58:24 LE ROUX Cecile DYNAMIC SPORTING CLUB 148 M4F (8 / 8) 5.0 01:58:10
311 01:53:24 LEON Lisa LES G.O 20 M4F (7 / 8) 5.3 01:53:02
310 01:51:24 BOUILLY Tatiana 114 M0F (26 / 27) 5.3 01:51:09
308 01:45:46 CHEREL Dominique 250 M7M (4 / 4) 5.6 01:45:28
309 01:45:46 MORICE Elisabeth 168 M5F (6 / 6) 5.6 01:45:33
307 01:41:58 ALLEZY Isabelle 140 M3F (9 / 9) 5.9 01:41:41
306 01:39:39 WINNE Carole VORWERK 179 M3F (8 / 9) 6.0 01:39:21
305 01:36:24 LEFEBVRE Aurore 35 M0F (25 / 27) 6.2 01:36:08
304 01:29:32 REJEK Philippe NATURE SPORT ATTITUDE 167 M4M (11 / 11) 6.7 01:29:11
303 01:29:27 RONCIER Cassandre 5 SEF (26 / 26) 6.7 01:29:06
302 01:28:44 PAUGOIS Nadia 251 M4F (6 / 8) 6.7 01:28:33
301 01:28:30 MARECHAL Sonia CA BREZOLLES 333 M2F (13 / 13) 6.7 01:28:19
300 01:26:42 POINTEREAU Aline OXYGENE SPICACIEN 93 M0F (24 / 27) 6.9 01:26:25
299 01:26:24 LEMIERE Gwladys 52 M1F (16 / 16) 6.9 01:26:12
297 01:25:45 STEFFANY Camille 74 SEF (25 / 26) 7.0 01:25:34
298 01:25:45 STEFFANY Thierry 63 M4M (10 / 11) 7.0 01:25:34
295 01:25:43 DOUARD Corinne 236 M2F (12 / 13) 7.0 01:25:29
296 01:25:43 SALIN Nathalie 272 M3F (7 / 9) 7.0 01:25:29
293 01:25:06 VRAIN Elodie 162 M0F (23 / 27) 7.0 01:24:54
294 01:25:06 SEVESTRE Michelle 317 M4F (5 / 8) 7.0 01:24:50
291 01:25:00 DUPONT Maria 8 M2F (11 / 13) 7.0 01:24:45
292 01:25:00 RENOULT Fabrice 7 M2M (25 / 25) 7.0 01:24:46
290 01:24:48 CUILLERDIER Pascale 347 M4F (4 / 8) 7.0 01:24:41
289 01:23:50 LEROUX Anne 130 M3F (6 / 9) 7.1 01:23:39